Afonsos, Brazil

2:46 PM BRT on July 24, 2014 (GMT -0300)
Todos os Santos (IRIODEJA18) Elev 98 ft | 22.89 °S, 43.28 °W | Change Station

Current weather conditions updated 6 seconds ago

Clear
Clear
90.5 °F
Feels Like 92 °F
N
1.8
Wind Variable Wind from WNW
Gusts 7.6 mph

Today is forecast to be nearly the same temperature as yesterday. Cloudy with rain tonight.

Today
High -- | Low -- °F
--% Chance of Precip.
Yesterday
High -- | Low -- °F
Precip. -- in
6:31 AM 5:29 PM
Waning Crescent, 4% visible
Pressure 29.89 in
Visibility -9999.0 miles
Clouds
Heat Index 92 °F
Dew Point 64 °F
Humidity 41%
Rainfall 0.00 in
Snow Depth Not available.
UV Not available.
Pollen Not available.
Air Quality Not available.
Flu Activity Not available.
METAR SBAF 241700Z 02008KT CAVOK 31/13 Q1012

More Conditions Fewer Conditions

Pressure 29.89 in
Visibility -9999.0 miles
Clouds
Heat Index 92 °F
Dew Point 64 °F
Humidity 41%
Rainfall 0.00 in
Snow Depth Not available.
UV Not available.
Pollen Not available.
Air Quality Not available.
Flu Activity Not available.
METAR SBAF 241700Z 02008KT CAVOK 31/13 Q1012

More Conditions Fewer Conditions

10-Day Weather Forecast

Almanac

Astronomy

Jul. 24, 2014 Rise Set
Actual Time 6:31 AM BRT 5:29 PM BRT
Civil Twilight 6:07 AM BRT 5:52 PM BRT
Nautical Twilight 5:39 AM BRT 6:20 PM BRT
Astronomical Twilight 5:12 AM BRT 6:47 PM BRT
Moon 4:28 AM BRT 3:44 PM BRT
Length of Visible Light 11h 45m
Length of Day
10h 57m
Tomorrow will be 0m 49s longer.
Waning Crescent, 4% of the Moon is Illuminated
Today
Waning Crescent
Jul 26
New
Aug 3
First Quarter
Aug 10
Full
Aug 17
Last Quarter

Today's Extremes

Country Highs Country Lows

Community

WunderPhotos

Upload Photos

1,737,079 photos uploaded!

Nearby

Snow Depth

Not available.

Earthquake Activity

City Distance Mag. Time & Date
No recent earthquake activity has been reported nearby.
Minimum magnitude displayed is 2.5.

Coastal Water Temperatures

Place Temperature
No Stations Reporting

Nearby Weather Stations

Station Location Temp. Heat Index Dew Point Humidity Wind Precip. Elev Updated Type
Todos os Santos, Rio de Janeiro 90.5 °F 92 °F 64 °F 41% WNW  at  1.8 mph 0.00 in / hr 98 ft 2:45 PM BRT Rapid Fire
Cachambi / Meier, Rio De Janeiro 85.5 °F 85 °F 58 °F 39% WNW  at  2.1 mph 0.00 in / hr 79 ft 2:43 PM BRT Normal
CSCVL pouso Pepino, Rio De Janeiro 80.4 °F 81 °F 61 °F 51% SSW  at  0.0 mph 0.00 in / hr 59 ft 2:46 PM BRT Rapid Fire
Ipanema - Posto 9, Rio De Janeiro 82.0 °F 82 °F 56 °F 42% North  at  0.3 mph 0.00 in / hr 115 ft 2:44 PM BRT Normal
Vila Progesso, Pendotiba - Niteroi, RJ -, Niteroi 85.6 °F 87 °F 65 °F 50% South  at  1.1 mph - / hr 300 ft 2:43 PM BRT Normal
Niteroi, Niteroi 86.0 °F 86 °F 62 °F 44% ENE  at  3.0 mph 0.00 in / hr 23 ft 2:45 PM BRT Normal
CSCVL rampa Pedra Bonita, Rio De Janeiro 76.5 °F 78 °F 59 °F 54% NNE  at  14.0 mph 0.00 in / hr 1709 ft 2:45 PM BRT Rapid Fire

Show More Stations Show Fewer Stations